sensor_id;sensor_type;location;lat;lon;timestamp;P1;durP1;ratioP1;P2;durP2;ratioP2
21334;SDS011;69435;52.670;13.544;2024-01-15T00:02:10;13.63;;;8.93;;
21334;SDS011;69435;52.670;13.544;2024-01-15T00:04:56;14.47;;;8.90;;
21334;SDS011;69435;52.670;13.544;2024-01-15T00:07:42;10.10;;;6.37;;
21334;SDS011;69435;52.670;13.544;2024-01-15T00:10:28;7.53;;;4.67;;
21334;SDS011;69435;52.670;13.544;2024-01-15T00:13:14;10.67;;;7.63;;
21334;SDS011;69435;52.670;13.544;2024-01-15T00:16:00;10.87;;;6.70;;
21334;SDS011;69435;52.670;13.544;2024-01-15T00:18:46;11.20;;;7.57;;
21334;SDS011;69435;52.670;13.544;2024-01-15T00:21:32;7.97;;;6.70;;
21334;SDS011;69435;52.670;13.544;2024-01-15T00:24:19;10.50;;;7.10;;
21334;SDS011;69435;52.670;13.544;2024-01-15T00:27:05;9.00;;;4.93;;
21334;SDS011;69435;52.670;13.544;2024-01-15T00:29:51;12.67;;;8.23;;
21334;SDS011;69435;52.670;13.544;2024-01-15T00:32:37;15.53;;;8.17;;
21334;SDS011;69435;52.670;13.544;2024-01-15T00:35:24;6.53;;;4.73;;
21334;SDS011;69435;52.670;13.544;2024-01-15T00:38:10;9.73;;;6.97;;
21334;SDS011;69435;52.670;13.544;2024-01-15T00:40:56;11.23;;;7.57;;
21334;SDS011;69435;52.670;13.544;2024-01-15T00:43:42;14.60;;;8.73;;
21334;SDS011;69435;52.670;13.544;2024-01-15T00:46:28;10.60;;;7.07;;
21334;SDS011;69435;52.670;13.544;2024-01-15T00:49:14;9.93;;;5.20;;
21334;SDS011;69435;52.670;13.544;2024-01-15T00:52:01;4.37;;;3.40;;
21334;SDS011;69435;52.670;13.544;2024-01-15T00:54:47;10.17;;;7.70;;
21334;SDS011;69435;52.670;13.544;2024-01-15T00:57:33;11.87;;;7.63;;
21334;SDS011;69435;52.670;13.544;2024-01-15T01:00:19;11.27;;;7.80;;
21334;SDS011;69435;52.670;13.544;2024-01-15T01:03:05;10.20;;;6.50;;
21334;SDS011;69435;52.670;13.544;2024-01-15T01:05:51;11.03;;;7.10;;
21334;SDS011;69435;52.670;13.544;2024-01-15T01:08:38;11.43;;;6.57;;
21334;SDS011;69435;52.670;13.544;2024-01-15T01:11:24;9.80;;;7.00;;
21334;SDS011;69435;52.670;13.544;2024-01-15T01:14:11;8.33;;;6.27;;
21334;SDS011;69435;52.670;13.544;2024-01-15T01:16:57;8.13;;;4.97;;
21334;SDS011;69435;52.670;13.544;2024-01-15T01:19:43;19.93;;;5.93;;
21334;SDS011;69435;52.670;13.544;2024-01-15T01:22:29;10.23;;;5.80;;
21334;SDS011;69435;52.670;13.544;2024-01-15T01:25:15;10.00;;;6.53;;
21334;SDS011;69435;52.670;13.544;2024-01-15T01:28:01;7.80;;;4.43;;
21334;SDS011;69435;52.670;13.544;2024-01-15T01:30:48;8.20;;;4.80;;
21334;SDS011;69435;52.670;13.544;2024-01-15T01:33:34;9.50;;;4.63;;
21334;SDS011;69435;52.670;13.544;2024-01-15T01:36:20;9.33;;;6.13;;
21334;SDS011;69435;52.670;13.544;2024-01-15T01:39:06;9.00;;;5.70;;
21334;SDS011;69435;52.670;13.544;2024-01-15T01:41:52;4.50;;;3.90;;
21334;SDS011;69435;52.670;13.544;2024-01-15T01:44:38;5.57;;;3.97;;
21334;SDS011;69435;52.670;13.544;2024-01-15T01:47:24;8.13;;;5.30;;
21334;SDS011;69435;52.670;13.544;2024-01-15T01:50:12;12.83;;;6.13;;
21334;SDS011;69435;52.670;13.544;2024-01-15T01:53:00;11.67;;;6.13;;
21334;SDS011;69435;52.670;13.544;2024-01-15T01:55:49;5.70;;;3.47;;
21334;SDS011;69435;52.670;13.544;2024-01-15T01:58:36;14.70;;;5.97;;
21334;SDS011;69435;52.670;13.544;2024-01-15T02:01:22;5.57;;;4.07;;
21334;SDS011;69435;52.670;13.544;2024-01-15T02:04:08;4.43;;;3.53;;
21334;SDS011;69435;52.670;13.544;2024-01-15T02:06:55;8.27;;;5.30;;
21334;SDS011;69435;52.670;13.544;2024-01-15T02:09:41;6.10;;;4.27;;
21334;SDS011;69435;52.670;13.544;2024-01-15T02:12:27;5.70;;;4.43;;
21334;SDS011;69435;52.670;13.544;2024-01-15T02:15:13;5.63;;;3.20;;
21334;SDS011;69435;52.670;13.544;2024-01-15T02:18:00;7.57;;;4.90;;
21334;SDS011;69435;52.670;13.544;2024-01-15T02:20:49;4.30;;;3.90;;
21334;SDS011;69435;52.670;13.544;2024-01-15T02:23:35;8.30;;;5.37;;
21334;SDS011;69435;52.670;13.544;2024-01-15T02:26:22;6.90;;;5.27;;
21334;SDS011;69435;52.670;13.544;2024-01-15T02:29:08;4.80;;;3.83;;
21334;SDS011;69435;52.670;13.544;2024-01-15T02:31:55;4.50;;;3.17;;
21334;SDS011;69435;52.670;13.544;2024-01-15T02:34:41;4.80;;;4.30;;
21334;SDS011;69435;52.670;13.544;2024-01-15T02:37:27;9.97;;;5.67;;
21334;SDS011;69435;52.670;13.544;2024-01-15T02:40:13;7.53;;;4.27;;
21334;SDS011;69435;52.670;13.544;2024-01-15T02:42:59;4.27;;;3.87;;
21334;SDS011;69435;52.670;13.544;2024-01-15T02:45:45;9.23;;;5.77;;
21334;SDS011;69435;52.670;13.544;2024-01-15T02:48:32;8.00;;;3.63;;
21334;SDS011;69435;52.670;13.544;2024-01-15T02:51:20;9.10;;;5.37;;
21334;SDS011;69435;52.670;13.544;2024-01-15T02:54:06;5.17;;;4.37;;
21334;SDS011;69435;52.670;13.544;2024-01-15T02:56:52;11.23;;;5.10;;
21334;SDS011;69435;52.670;13.544;2024-01-15T02:59:37;4.87;;;3.27;;
21334;SDS011;69435;52.670;13.544;2024-01-15T03:02:23;5.53;;;4.67;;
21334;SDS011;69435;52.670;13.544;2024-01-15T03:05:09;7.47;;;3.70;;
21334;SDS011;69435;52.670;13.544;2024-01-15T03:07:56;6.77;;;4.47;;
21334;SDS011;69435;52.670;13.544;2024-01-15T03:10:41;3.83;;;2.37;;
21334;SDS011;69435;52.670;13.544;2024-01-15T03:13:28;3.77;;;2.30;;
21334;SDS011;69435;52.670;13.544;2024-01-15T03:16:14;7.60;;;4.10;;
21334;SDS011;69435;52.670;13.544;2024-01-15T03:18:59;12.10;;;3.40;;
21334;SDS011;69435;52.670;13.544;2024-01-15T03:21:46;5.40;;;2.30;;
21334;SDS011;69435;52.670;13.544;2024-01-15T03:24:32;7.27;;;4.93;;
21334;SDS011;69435;52.670;13.544;2024-01-15T03:27:18;9.40;;;3.73;;
21334;SDS011;69435;52.670;13.544;2024-01-15T03:30:04;4.40;;;2.77;;
21334;SDS011;69435;52.670;13.544;2024-01-15T03:32:51;3.40;;;3.03;;
21334;SDS011;69435;52.670;13.544;2024-01-15T03:35:37;6.13;;;3.73;;
21334;SDS011;69435;52.670;13.544;2024-01-15T03:38:23;7.70;;;3.83;;
21334;SDS011;69435;52.670;13.544;2024-01-15T03:41:09;6.27;;;2.97;;
21334;SDS011;69435;52.670;13.544;2024-01-15T03:43:55;6.97;;;3.37;;
21334;SDS011;69435;52.670;13.544;2024-01-15T03:46:41;11.17;;;4.33;;
21334;SDS011;69435;52.670;13.544;2024-01-15T03:49:27;3.30;;;2.00;;
21334;SDS011;69435;52.670;13.544;2024-01-15T03:52:13;5.07;;;3.13;;
21334;SDS011;69435;52.670;13.544;2024-01-15T03:54:59;6.67;;;3.67;;
21334;SDS011;69435;52.670;13.544;2024-01-15T03:57:45;6.10;;;3.70;;
21334;SDS011;69435;52.670;13.544;2024-01-15T04:00:31;5.63;;;2.30;;
21334;SDS011;69435;52.670;13.544;2024-01-15T04:03:17;3.60;;;1.67;;
21334;SDS011;69435;52.670;13.544;2024-01-15T04:06:04;3.60;;;3.23;;
21334;SDS011;69435;52.670;13.544;2024-01-15T04:08:50;3.63;;;2.53;;
21334;SDS011;69435;52.670;13.544;2024-01-15T04:11:36;7.83;;;3.73;;
21334;SDS011;69435;52.670;13.544;2024-01-15T04:14:22;4.60;;;1.87;;
21334;SDS011;69435;52.670;13.544;2024-01-15T04:17:08;7.90;;;3.33;;
21334;SDS011;69435;52.670;13.544;2024-01-15T04:19:54;6.77;;;3.33;;
21334;SDS011;69435;52.670;13.544;2024-01-15T04:22:40;2.50;;;1.77;;
21334;SDS011;69435;52.670;13.544;2024-01-15T04:25:26;5.07;;;2.50;;
21334;SDS011;69435;52.670;13.544;2024-01-15T04:28:12;4.43;;;2.57;;
21334;SDS011;69435;52.670;13.544;2024-01-15T04:30:58;3.90;;;2.67;;
21334;SDS011;69435;52.670;13.544;2024-01-15T04:33:44;7.50;;;3.00;;
21334;SDS011;69435;52.670;13.544;2024-01-15T04:36:30;7.87;;;2.73;;
21334;SDS011;69435;52.670;13.544;2024-01-15T04:39:16;2.97;;;2.43;;
21334;SDS011;69435;52.670;13.544;2024-01-15T04:42:02;5.47;;;2.63;;
21334;SDS011;69435;52.670;13.544;2024-01-15T04:44:49;3.53;;;2.30;;
21334;SDS011;69435;52.670;13.544;2024-01-15T04:47:35;4.60;;;2.73;;
21334;SDS011;69435;52.670;13.544;2024-01-15T04:50:22;5.17;;;2.83;;
21334;SDS011;69435;52.670;13.544;2024-01-15T04:53:08;3.47;;;2.73;;
21334;SDS011;69435;52.670;13.544;2024-01-15T04:55:54;3.40;;;1.80;;
21334;SDS011;69435;52.670;13.544;2024-01-15T04:58:40;9.53;;;2.40;;
21334;SDS011;69435;52.670;13.544;2024-01-15T05:01:29;2.77;;;2.30;;
21334;SDS011;69435;52.670;13.544;2024-01-15T05:04:17;3.00;;;2.13;;
21334;SDS011;69435;52.670;13.544;2024-01-15T05:07:03;2.00;;;1.80;;
21334;SDS011;69435;52.670;13.544;2024-01-15T05:09:50;5.33;;;2.80;;
21334;SDS011;69435;52.670;13.544;2024-01-15T05:12:36;5.70;;;2.87;;
21334;SDS011;69435;52.670;13.544;2024-01-15T05:15:21;6.87;;;2.80;;
21334;SDS011;69435;52.670;13.544;2024-01-15T05:18:07;1.70;;;1.60;;
21334;SDS011;69435;52.670;13.544;2024-01-15T05:20:53;4.47;;;1.70;;
21334;SDS011;69435;52.670;13.544;2024-01-15T05:23:39;5.13;;;2.10;;
21334;SDS011;69435;52.670;13.544;2024-01-15T05:26:25;5.47;;;1.43;;
21334;SDS011;69435;52.670;13.544;2024-01-15T05:29:11;4.27;;;1.83;;
21334;SDS011;69435;52.670;13.544;2024-01-15T05:31:57;7.70;;;1.80;;
21334;SDS011;69435;52.670;13.544;2024-01-15T05:34:44;4.63;;;2.70;;
21334;SDS011;69435;52.670;13.544;2024-01-15T05:37:30;5.10;;;2.10;;
21334;SDS011;69435;52.670;13.544;2024-01-15T05:40:16;2.50;;;1.90;;
21334;SDS011;69435;52.670;13.544;2024-01-15T05:43:02;0.70;;;0.70;;
21334;SDS011;69435;52.670;13.544;2024-01-15T05:45:48;2.83;;;1.73;;
21334;SDS011;69435;52.670;13.544;2024-01-15T05:48:34;2.67;;;1.57;;
21334;SDS011;69435;52.670;13.544;2024-01-15T05:51:20;2.33;;;1.93;;
21334;SDS011;69435;52.670;13.544;2024-01-15T05:54:06;6.97;;;1.97;;
21334;SDS011;69435;52.670;13.544;2024-01-15T05:56:52;6.13;;;1.40;;
21334;SDS011;69435;52.670;13.544;2024-01-15T05:59:38;7.40;;;2.40;;
21334;SDS011;69435;52.670;13.544;2024-01-15T06:02:24;0.77;;;0.77;;
21334;SDS011;69435;52.670;13.544;2024-01-15T06:05:10;2.50;;;1.67;;
21334;SDS011;69435;52.670;13.544;2024-01-15T06:07:56;3.13;;;1.10;;
21334;SDS011;69435;52.670;13.544;2024-01-15T06:10:42;1.67;;;1.13;;
21334;SDS011;69435;52.670;13.544;2024-01-15T06:13:28;3.30;;;0.90;;
21334;SDS011;69435;52.670;13.544;2024-01-15T06:16:14;6.73;;;1.53;;
21334;SDS011;69435;52.670;13.544;2024-01-15T06:19:05;2.23;;;1.67;;
21334;SDS011;69435;52.670;13.544;2024-01-15T06:21:51;1.73;;;1.63;;
21334;SDS011;69435;52.670;13.544;2024-01-15T06:24:37;2.33;;;0.90;;
21334;SDS011;69435;52.670;13.544;2024-01-15T06:27:23;4.53;;;1.67;;
21334;SDS011;69435;52.670;13.544;2024-01-15T06:30:09;2.03;;;1.27;;
21334;SDS011;69435;52.670;13.544;2024-01-15T06:32:57;3.37;;;1.07;;
21334;SDS011;69435;52.670;13.544;2024-01-15T06:35:43;6.63;;;1.17;;
21334;SDS011;69435;52.670;13.544;2024-01-15T06:38:28;2.97;;;1.00;;
21334;SDS011;69435;52.670;13.544;2024-01-15T06:41:14;2.20;;;0.83;;
21334;SDS011;69435;52.670;13.544;2024-01-15T06:44:00;1.13;;;0.83;;
21334;SDS011;69435;52.670;13.544;2024-01-15T06:46:46;2.07;;;1.50;;
21334;SDS011;69435;52.670;13.544;2024-01-15T06:49:33;3.20;;;1.03;;
21334;SDS011;69435;52.670;13.544;2024-01-15T06:52:19;6.40;;;1.23;;
21334;SDS011;69435;52.670;13.544;2024-01-15T06:55:05;4.63;;;1.30;;
21334;SDS011;69435;52.670;13.544;2024-01-15T06:57:51;6.30;;;1.53;;
21334;SDS011;69435;52.670;13.544;2024-01-15T07:00:37;0.80;;;0.60;;
21334;SDS011;69435;52.670;13.544;2024-01-15T07:03:23;2.33;;;1.20;;
21334;SDS011;69435;52.670;13.544;2024-01-15T07:06:10;1.33;;;0.97;;
21334;SDS011;69435;52.670;13.544;2024-01-15T07:08:57;5.17;;;1.43;;
21334;SDS011;69435;52.670;13.544;2024-01-15T07:11:46;4.00;;;1.37;;
21334;SDS011;69435;52.670;13.544;2024-01-15T07:14:32;1.90;;;0.67;;
21334;SDS011;69435;52.670;13.544;2024-01-15T07:17:18;4.43;;;2.03;;
21334;SDS011;69435;52.670;13.544;2024-01-15T07:20:04;5.83;;;1.57;;
21334;SDS011;69435;52.670;13.544;2024-01-15T07:22:54;11.40;;;1.60;;
21334;SDS011;69435;52.670;13.544;2024-01-15T07:25:40;3.53;;;0.93;;
21334;SDS011;69435;52.670;13.544;2024-01-15T07:28:28;1.90;;;1.10;;
21334;SDS011;69435;52.670;13.544;2024-01-15T07:31:15;7.67;;;0.70;;
21334;SDS011;69435;52.670;13.544;2024-01-15T07:34:02;10.07;;;1.63;;
21334;SDS011;69435;52.670;13.544;2024-01-15T07:36:48;5.53;;;1.60;;
21334;SDS011;69435;52.670;13.544;2024-01-15T07:39:34;6.70;;;1.57;;
21334;SDS011;69435;52.670;13.544;2024-01-15T07:42:20;1.03;;;0.87;;
21334;SDS011;69435;52.670;13.544;2024-01-15T07:45:06;5.97;;;1.33;;
21334;SDS011;69435;52.670;13.544;2024-01-15T07:47:52;6.03;;;1.40;;
21334;SDS011;69435;52.670;13.544;2024-01-15T07:50:38;0.83;;;0.83;;
21334;SDS011;69435;52.670;13.544;2024-01-15T07:53:24;11.37;;;1.53;;
21334;SDS011;69435;52.670;13.544;2024-01-15T07:56:10;6.30;;;1.67;;
21334;SDS011;69435;52.670;13.544;2024-01-15T07:58:56;5.37;;;2.00;;
21334;SDS011;69435;52.670;13.544;2024-01-15T08:01:42;4.83;;;1.50;;
21334;SDS011;69435;52.670;13.544;2024-01-15T08:04:28;12.83;;;2.33;;
21334;SDS011;69435;52.670;13.544;2024-01-15T08:07:14;9.10;;;1.47;;
21334;SDS011;69435;52.670;13.544;2024-01-15T08:10:00;10.70;;;1.70;;
21334;SDS011;69435;52.670;13.544;2024-01-15T08:12:46;3.00;;;1.10;;
21334;SDS011;69435;52.670;13.544;2024-01-15T08:15:32;13.20;;;1.80;;
21334;SDS011;69435;52.670;13.544;2024-01-15T08:18:18;3.30;;;0.63;;
21334;SDS011;69435;52.670;13.544;2024-01-15T08:21:05;8.60;;;1.57;;
21334;SDS011;69435;52.670;13.544;2024-01-15T08:23:52;5.20;;;1.40;;
21334;SDS011;69435;52.670;13.544;2024-01-15T08:26:38;6.27;;;1.40;;
21334;SDS011;69435;52.670;13.544;2024-01-15T08:29:24;5.30;;;1.60;;
21334;SDS011;69435;52.670;13.544;2024-01-15T08:32:10;2.00;;;1.00;;
21334;SDS011;69435;52.670;13.544;2024-01-15T08:34:59;2.67;;;1.00;;
21334;SDS011;69435;52.670;13.544;2024-01-15T08:37:45;3.10;;;1.33;;
21334;SDS011;69435;52.670;13.544;2024-01-15T08:40:31;1.70;;;1.10;;
21334;SDS011;69435;52.670;13.544;2024-01-15T08:43:17;2.70;;;0.80;;
21334;SDS011;69435;52.670;13.544;2024-01-15T08:46:03;2.77;;;1.13;;
21334;SDS011;69435;52.670;13.544;2024-01-15T08:48:49;5.23;;;1.50;;
21334;SDS011;69435;52.670;13.544;2024-01-15T08:51:35;2.63;;;0.93;;
21334;SDS011;69435;52.670;13.544;2024-01-15T08:54:21;2.20;;;0.87;;
21334;SDS011;69435;52.670;13.544;2024-01-15T08:57:07;7.53;;;1.43;;
21334;SDS011;69435;52.670;13.544;2024-01-15T08:59:53;0.50;;;0.30;;
21334;SDS011;69435;52.670;13.544;2024-01-15T09:02:39;1.27;;;1.07;;
21334;SDS011;69435;52.670;13.544;2024-01-15T09:05:25;4.60;;;1.03;;
21334;SDS011;69435;52.670;13.544;2024-01-15T09:08:12;5.83;;;1.20;;
21334;SDS011;69435;52.670;13.544;2024-01-15T09:10:58;7.13;;;0.90;;
21334;SDS011;69435;52.670;13.544;2024-01-15T09:13:44;8.40;;;0.90;;
21334;SDS011;69435;52.670;13.544;2024-01-15T09:16:30;1.20;;;0.50;;
21334;SDS011;69435;52.670;13.544;2024-01-15T09:19:16;2.70;;;1.80;;
21334;SDS011;69435;52.670;13.544;2024-01-15T09:22:02;1.33;;;1.23;;
21334;SDS011;69435;52.670;13.544;2024-01-15T09:24:48;1.50;;;1.40;;
21334;SDS011;69435;52.670;13.544;2024-01-15T09:27:34;1.57;;;0.87;;
21334;SDS011;69435;52.670;13.544;2024-01-15T09:30:20;9.47;;;0.90;;
21334;SDS011;69435;52.670;13.544;2024-01-15T09:33:06;3.57;;;1.10;;
21334;SDS011;69435;52.670;13.544;2024-01-15T09:35:52;4.80;;;1.73;;
21334;SDS011;69435;52.670;13.544;2024-01-15T09:38:39;4.13;;;1.63;;
21334;SDS011;69435;52.670;13.544;2024-01-15T09:41:27;4.73;;;1.40;;
21334;SDS011;69435;52.670;13.544;2024-01-15T09:44:13;8.83;;;1.17;;
21334;SDS011;69435;52.670;13.544;2024-01-15T09:46:59;6.07;;;1.13;;
21334;SDS011;69435;52.670;13.544;2024-01-15T09:49:46;2.20;;;1.00;;
21334;SDS011;69435;52.670;13.544;2024-01-15T09:52:33;8.13;;;1.10;;
21334;SDS011;69435;52.670;13.544;2024-01-15T09:55:20;3.87;;;1.40;;
21334;SDS011;69435;52.670;13.544;2024-01-15T09:58:08;4.60;;;1.00;;
21334;SDS011;69435;52.670;13.544;2024-01-15T10:00:55;3.20;;;0.90;;
21334;SDS011;69435;52.670;13.544;2024-01-15T10:03:42;3.90;;;0.97;;
21334;SDS011;69435;52.670;13.544;2024-01-15T10:06:28;3.73;;;1.30;;
21334;SDS011;69435;52.670;13.544;2024-01-15T10:09:16;3.63;;;0.50;;
21334;SDS011;69435;52.670;13.544;2024-01-15T10:12:03;1.83;;;0.47;;
21334;SDS011;69435;52.670;13.544;2024-01-15T10:14:50;8.33;;;2.43;;
21334;SDS011;69435;52.670;13.544;2024-01-15T10:17:36;4.70;;;1.80;;
21334;SDS011;69435;52.670;13.544;2024-01-15T10:20:23;1.30;;;0.80;;
21334;SDS011;69435;52.670;13.544;2024-01-15T10:23:10;6.23;;;2.17;;
21334;SDS011;69435;52.670;13.544;2024-01-15T10:25:56;6.73;;;1.60;;
21334;SDS011;69435;52.670;13.544;2024-01-15T10:28:43;1.13;;;0.80;;
21334;SDS011;69435;52.670;13.544;2024-01-15T10:31:29;3.27;;;1.67;;
21334;SDS011;69435;52.670;13.544;2024-01-15T10:34:16;8.07;;;1.37;;
21334;SDS011;69435;52.670;13.544;2024-01-15T10:37:03;4.83;;;0.90;;
21334;SDS011;69435;52.670;13.544;2024-01-15T10:39:49;2.43;;;0.90;;
21334;SDS011;69435;52.670;13.544;2024-01-15T10:42:35;2.40;;;2.20;;
21334;SDS011;69435;52.670;13.544;2024-01-15T10:45:21;1.90;;;0.30;;
21334;SDS011;69435;52.670;13.544;2024-01-15T10:48:07;1.10;;;1.00;;
21334;SDS011;69435;52.670;13.544;2024-01-15T10:50:54;0.57;;;0.50;;
21334;SDS011;69435;52.670;13.544;2024-01-15T10:53:41;2.10;;;0.63;;
21334;SDS011;69435;52.670;13.544;2024-01-15T10:56:30;2.30;;;0.87;;
21334;SDS011;69435;52.670;13.544;2024-01-15T10:59:19;0.40;;;0.40;;
21334;SDS011;69435;52.670;13.544;2024-01-15T11:02:07;0.67;;;0.33;;
21334;SDS011;69435;52.670;13.544;2024-01-15T11:04:54;1.87;;;0.83;;
21334;SDS011;69435;52.670;13.544;2024-01-15T11:07:40;3.07;;;1.03;;
21334;SDS011;69435;52.670;13.544;2024-01-15T11:16:23;0.30;;;0.30;;
21334;SDS011;69435;52.670;13.544;2024-01-15T11:19:09;0.73;;;0.70;;
21334;SDS011;69435;52.670;13.544;2024-01-15T11:21:58;3.60;;;0.80;;
21334;SDS011;69435;52.670;13.544;2024-01-15T11:24:44;4.50;;;0.93;;
21334;SDS011;69435;52.670;13.544;2024-01-15T11:30:36;4.53;;;0.37;;
21334;SDS011;69435;52.670;13.544;2024-01-15T11:33:32;0.97;;;0.63;;
21334;SDS011;69435;52.670;13.544;2024-01-15T11:36:18;0.93;;;0.70;;
21334;SDS011;69435;52.670;13.544;2024-01-15T11:42:12;1.80;;;0.87;;
21334;SDS011;69435;52.670;13.544;2024-01-15T11:44:59;2.93;;;0.90;;
21334;SDS011;69435;52.670;13.544;2024-01-15T11:51:01;2.47;;;0.90;;
21334;SDS011;69435;52.670;13.544;2024-01-15T11:53:49;1.20;;;0.63;;
21334;SDS011;69435;52.670;13.544;2024-01-15T11:56:43;2.80;;;0.40;;
21334;SDS011;69435;52.670;13.544;2024-01-15T11:59:29;0.90;;;0.43;;
21334;SDS011;69435;52.670;13.544;2024-01-15T12:02:15;0.93;;;0.40;;
21334;SDS011;69435;52.670;13.544;2024-01-15T12:05:01;1.37;;;0.40;;
21334;SDS011;69435;52.670;13.544;2024-01-15T12:07:48;1.03;;;0.67;;
21334;SDS011;69435;52.670;13.544;2024-01-15T12:10:35;0.60;;;0.30;;
21334;SDS011;69435;52.670;13.544;2024-01-15T12:13:26;0.20;;;0.20;;
21334;SDS011;69435;52.670;13.544;2024-01-15T12:16:12;0.40;;;0.40;;
21334;SDS011;69435;52.670;13.544;2024-01-15T12:18:59;0.53;;;0.53;;
21334;SDS011;69435;52.670;13.544;2024-01-15T12:21:45;2.87;;;1.33;;
21334;SDS011;69435;52.670;13.544;2024-01-15T12:24:32;0.93;;;0.50;;
21334;SDS011;69435;52.670;13.544;2024-01-15T12:27:18;0.53;;;0.53;;
21334;SDS011;69435;52.670;13.544;2024-01-15T12:30:04;0.87;;;0.67;;
21334;SDS011;69435;52.670;13.544;2024-01-15T12:32:52;0.60;;;0.50;;
21334;SDS011;69435;52.670;13.544;2024-01-15T12:35:38;0.40;;;0.40;;
21334;SDS011;69435;52.670;13.544;2024-01-15T12:38:24;0.30;;;0.30;;
21334;SDS011;69435;52.670;13.544;2024-01-15T12:41:10;0.30;;;0.30;;
21334;SDS011;69435;52.670;13.544;2024-01-15T12:43:56;0.40;;;0.40;;
21334;SDS011;69435;52.670;13.544;2024-01-15T12:46:42;0.97;;;0.60;;
21334;SDS011;69435;52.670;13.544;2024-01-15T12:49:28;0.37;;;0.30;;
21334;SDS011;69435;52.670;13.544;2024-01-15T12:52:14;1.03;;;0.13;;
21334;SDS011;69435;52.670;13.544;2024-01-15T12:55:00;0.80;;;0.47;;
21334;SDS011;69435;52.670;13.544;2024-01-15T12:57:47;1.50;;;0.50;;
21334;SDS011;69435;52.670;13.544;2024-01-15T13:00:33;1.50;;;0.40;;
21334;SDS011;69435;52.670;13.544;2024-01-15T13:03:19;0.30;;;0.30;;
21334;SDS011;69435;52.670;13.544;2024-01-15T13:06:04;0.63;;;0.50;;
21334;SDS011;69435;52.670;13.544;2024-01-15T13:08:51;3.00;;;0.67;;
21334;SDS011;69435;52.670;13.544;2024-01-15T13:11:37;0.37;;;0.37;;
21334;SDS011;69435;52.670;13.544;2024-01-15T13:14:23;1.37;;;0.17;;
21334;SDS011;69435;52.670;13.544;2024-01-15T13:17:09;1.70;;;0.20;;
21334;SDS011;69435;52.670;13.544;2024-01-15T13:19:55;0.70;;;0.50;;
21334;SDS011;69435;52.670;13.544;2024-01-15T13:22:41;0.27;;;0.27;;
21334;SDS011;69435;52.670;13.544;2024-01-15T13:25:29;0.63;;;0.50;;
21334;SDS011;69435;52.670;13.544;2024-01-15T13:28:15;1.43;;;0.77;;
21334;SDS011;69435;52.670;13.544;2024-01-15T13:31:01;0.63;;;0.57;;
21334;SDS011;69435;52.670;13.544;2024-01-15T13:33:47;0.20;;;0.20;;
21334;SDS011;69435;52.670;13.544;2024-01-15T13:36:33;0.60;;;0.60;;
21334;SDS011;69435;52.670;13.544;2024-01-15T13:39:19;0.43;;;0.43;;
21334;SDS011;69435;52.670;13.544;2024-01-15T13:42:06;0.93;;;0.87;;
21334;SDS011;69435;52.670;13.544;2024-01-15T13:44:51;0.33;;;0.33;;
21334;SDS011;69435;52.670;13.544;2024-01-15T13:47:37;0.30;;;0.30;;
21334;SDS011;69435;52.670;13.544;2024-01-15T13:50:23;1.10;;;0.80;;
21334;SDS011;69435;52.670;13.544;2024-01-15T13:53:09;0.53;;;0.50;;
21334;SDS011;69435;52.670;13.544;2024-01-15T13:55:55;1.13;;;0.77;;
21334;SDS011;69435;52.670;13.544;2024-01-15T13:58:41;0.87;;;0.87;;
21334;SDS011;69435;52.670;13.544;2024-01-15T14:01:28;1.90;;;1.07;;
21334;SDS011;69435;52.670;13.544;2024-01-15T14:04:14;1.60;;;0.93;;
21334;SDS011;69435;52.670;13.544;2024-01-15T14:07:00;1.17;;;0.53;;
21334;SDS011;69435;52.670;13.544;2024-01-15T14:09:46;1.27;;;0.93;;
21334;SDS011;69435;52.670;13.544;2024-01-15T14:12:31;1.57;;;1.17;;
21334;SDS011;69435;52.670;13.544;2024-01-15T14:15:19;1.00;;;0.93;;
21334;SDS011;69435;52.670;13.544;2024-01-15T14:18:06;0.60;;;0.60;;
21334;SDS011;69435;52.670;13.544;2024-01-15T14:20:52;0.57;;;0.50;;
21334;SDS011;69435;52.670;13.544;2024-01-15T14:23:38;1.03;;;0.60;;
21334;SDS011;69435;52.670;13.544;2024-01-15T14:26:24;0.80;;;0.77;;
21334;SDS011;69435;52.670;13.544;2024-01-15T14:29:10;2.53;;;0.47;;
21334;SDS011;69435;52.670;13.544;2024-01-15T14:31:56;0.50;;;0.50;;
21334;SDS011;69435;52.670;13.544;2024-01-15T14:34:42;0.43;;;0.40;;
21334;SDS011;69435;52.670;13.544;2024-01-15T14:37:28;1.33;;;1.10;;
21334;SDS011;69435;52.670;13.544;2024-01-15T14:40:14;0.77;;;0.77;;
21334;SDS011;69435;52.670;13.544;2024-01-15T14:43:02;1.27;;;1.07;;
21334;SDS011;69435;52.670;13.544;2024-01-15T14:45:48;0.77;;;0.47;;
21334;SDS011;69435;52.670;13.544;2024-01-15T14:48:34;0.60;;;0.50;;
21334;SDS011;69435;52.670;13.544;2024-01-15T14:51:20;0.30;;;0.30;;
21334;SDS011;69435;52.670;13.544;2024-01-15T14:54:06;0.63;;;0.63;;
21334;SDS011;69435;52.670;13.544;2024-01-15T14:56:54;2.33;;;0.73;;
21334;SDS011;69435;52.670;13.544;2024-01-15T14:59:42;3.53;;;1.20;;
21334;SDS011;69435;52.670;13.544;2024-01-15T15:02:28;0.97;;;0.50;;
21334;SDS011;69435;52.670;13.544;2024-01-15T15:05:14;2.40;;;1.40;;
21334;SDS011;69435;52.670;13.544;2024-01-15T15:08:02;3.37;;;1.30;;
21334;SDS011;69435;52.670;13.544;2024-01-15T15:10:53;2.13;;;1.33;;
21334;SDS011;69435;52.670;13.544;2024-01-15T15:13:39;1.80;;;1.03;;
21334;SDS011;69435;52.670;13.544;2024-01-15T15:16:25;1.70;;;0.70;;
21334;SDS011;69435;52.670;13.544;2024-01-15T15:19:12;3.33;;;1.30;;
21334;SDS011;69435;52.670;13.544;2024-01-15T15:21:58;4.10;;;1.30;;
21334;SDS011;69435;52.670;13.544;2024-01-15T15:24:45;1.13;;;0.73;;
21334;SDS011;69435;52.670;13.544;2024-01-15T15:27:30;0.60;;;0.60;;
21334;SDS011;69435;52.670;13.544;2024-01-15T15:30:16;1.13;;;0.97;;
21334;SDS011;69435;52.670;13.544;2024-01-15T15:33:02;1.80;;;0.53;;
21334;SDS011;69435;52.670;13.544;2024-01-15T15:35:50;1.87;;;1.10;;
21334;SDS011;69435;52.670;13.544;2024-01-15T15:38:36;1.43;;;1.33;;
21334;SDS011;69435;52.670;13.544;2024-01-15T15:41:23;1.00;;;0.90;;
21334;SDS011;69435;52.670;13.544;2024-01-15T15:44:11;1.10;;;0.90;;
21334;SDS011;69435;52.670;13.544;2024-01-15T15:47:00;1.30;;;0.50;;
21334;SDS011;69435;52.670;13.544;2024-01-15T15:49:46;1.70;;;1.13;;
21334;SDS011;69435;52.670;13.544;2024-01-15T15:52:32;0.57;;;0.57;;
21334;SDS011;69435;52.670;13.544;2024-01-15T15:55:18;0.93;;;0.93;;
21334;SDS011;69435;52.670;13.544;2024-01-15T15:58:04;1.10;;;1.00;;
21334;SDS011;69435;52.670;13.544;2024-01-15T16:00:50;3.60;;;0.80;;
21334;SDS011;69435;52.670;13.544;2024-01-15T16:03:36;2.10;;;0.77;;
21334;SDS011;69435;52.670;13.544;2024-01-15T16:06:22;1.17;;;0.70;;
21334;SDS011;69435;52.670;13.544;2024-01-15T16:09:08;0.73;;;0.30;;
21334;SDS011;69435;52.670;13.544;2024-01-15T16:11:57;0.97;;;0.97;;
21334;SDS011;69435;52.670;13.544;2024-01-15T16:14:44;5.03;;;1.30;;
21334;SDS011;69435;52.670;13.544;2024-01-15T16:17:32;1.83;;;1.30;;
21334;SDS011;69435;52.670;13.544;2024-01-15T16:20:26;5.00;;;1.93;;
21334;SDS011;69435;52.670;13.544;2024-01-15T16:23:12;1.63;;;1.47;;
21334;SDS011;69435;52.670;13.544;2024-01-15T16:25:59;1.60;;;1.50;;
21334;SDS011;69435;52.670;13.544;2024-01-15T16:28:45;1.50;;;0.90;;
21334;SDS011;69435;52.670;13.544;2024-01-15T16:31:30;4.23;;;1.73;;
21334;SDS011;69435;52.670;13.544;2024-01-15T16:34:17;2.13;;;1.40;;
21334;SDS011;69435;52.670;13.544;2024-01-15T16:37:02;4.70;;;1.40;;
21334;SDS011;69435;52.670;13.544;2024-01-15T16:39:49;3.60;;;1.90;;
21334;SDS011;69435;52.670;13.544;2024-01-15T16:42:35;2.50;;;0.93;;